Tor Futura — OZZE2 — position and weather

sailwx.info

Track history (hours):
 
Tides and Currents Weather Stations Pressure Air Temp Water Temp Dewpoint Dewpoint Depression Visibility Wind Speed Wind Dir Waves Ship Positions

Tor Futura

Last reported at 2015-Aug-27 07:03 UTC. Time now 2015-Aug-28 00:13 UTC.
Position N 36°17' W 007°57'.

Length 183.1 m; beam 25.2 m; draft 7.8 m.

Type: Cargo ship. MMSI: 219927000.

Date/timePositionNaut miles runAvg speedWind from/ knotsBaromVisibWave heightAir tempDewpointWater temp
2015-Aug-27 07:03N 36°17' W 007°57'715.0
2015-Aug-27 06:33N 36°19' W 008°06'1515.0
2015-Aug-27 05:33N 36°23' W 008°24'1514.8
2015-Aug-27 04:32N 36°27' W 008°42'1514.9
2015-Aug-27 03:34N 36°31' W 008°59'1814.1
2015-Aug-27 02:16N 36°37' W 009°20'1114.9
2015-Aug-27 01:33N 36°45' W 009°29'1514.6
2015-Aug-27 00:33N 36°59' W 009°36'1515.2
2015-Aug-26 23:33N 37°13' W 009°41'1514.9
2015-Aug-26 22:33N 37°28' W 009°45'1515.2
2015-Aug-26 21:33N 37°43' W 009°49'1514.9
2015-Aug-26 20:33N 37°57' W 009°54'1414.5
2015-Aug-26 19:33N 38°11' W 009°58'1514.5
2015-Aug-26 18:33N 38°25' W 010°02'1514.6
2015-Aug-26 17:33N 38°40' W 010°06'1515.4
2015-Aug-26 16:33N 38°55' W 010°07'1515.1
2015-Aug-26 15:33N 39°10' W 010°07'1514.9
2015-Aug-26 14:33N 39°25' W 010°07'  
2015-Aug-24 03:03N 50°33' E 000°03'713.8
2015-Aug-24 02:33N 50°35' E 000°13'1413.9
2015-Aug-24 01:33N 50°38' E 000°34'1414.0
2015-Aug-24 00:33N 50°45' E 000°54'1515.0
2015-Aug-23 23:33N 50°55' E 001°12'1515.5
2015-Aug-23 22:33N 51°05' E 001°31'1514.7
2015-Aug-23 21:34N 51°15' E 001°47'1414.4
2015-Aug-23 20:34N 51°28' E 001°57'1414.2
2015-Aug-23 19:33N 51°39' E 002°13'1513.9
2015-Aug-23 18:30N 51°50' E 002°28'3313.8
2015-Aug-23 16:05N 52°15' E 003°03'7215.1
2015-Aug-23 11:18N 53°10' E 004°21'1414.6
2015-Aug-23 10:20N 53°23' E 004°31'1214.6
2015-Aug-23 09:32N 53°34' E 004°38'1414.0
2015-Aug-23 08:33N 53°46' E 004°47'1414.3
2015-Aug-23 07:33N 53°60' E 004°56'1514.6
2015-Aug-23 06:33N 54°13' E 005°06'1514.7
2015-Aug-23 05:34N 54°26' E 005°19'1514.5
2015-Aug-23 04:33N 54°38' E 005°31'1414.3
2015-Aug-23 03:33N 54°50' E 005°44'1514.3
2015-Aug-23 02:30N 55°03' E 005°57'1414.5
2015-Aug-23 01:33N 55°15' E 006°10'1414.2
2015-Aug-23 00:33N 55°27' E 006°24'1414.4
2015-Aug-22 23:33N 55°39' E 006°38'1414.4
2015-Aug-22 22:33N 55°51' E 006°51'14114.1
2015-Aug-22 12:33N 57°35' E 009°44'1515.1
2015-Aug-22 11:33N 57°41' E 010°10'1514.9
2015-Aug-22 10:33N 57°47' E 010°36'1313.1
2015-Aug-22 09:34N 57°42' E 010°58'1717.1
2015-Aug-22 08:34N 57°30' E 011°21'1414.3
2015-Aug-22 07:34N 57°17' E 011°32'1414.4
2015-Aug-22 06:34N 57°04' E 011°42'1515.1
2015-Aug-22 05:34N 56°49' E 011°51'1414.0
2015-Aug-22 04:34N 56°36' E 011°44'1514.9
2015-Aug-22 03:34N 56°23' E 011°31'1414.4
2015-Aug-22 02:33N 56°11' E 011°17'1414.3
2015-Aug-22 01:33N 55°59' E 011°03'1615.5
2015-Aug-22 00:33N 55°46' E 010°49'1616.3
2015-Aug-21 23:33N 55°30' E 010°54'1616.5
2015-Aug-21 22:34N 55°14' E 011°06'1615.6
2015-Aug-21 21:34N 54°59' E 011°01'1413.7
2015-Aug-21 20:33N 54°46' E 010°53'1313.1
2015-Aug-21 19:33N 54°37' E 011°08'1413.6
2015-Aug-21 18:33N 54°27' E 011°25'1413.6
2015-Aug-21 17:33N 54°13' E 011°21'1414.1
2015-Aug-21 16:33N 54°03' E 011°04'10 9.9
2015-Aug-21 15:31N 53°56' E 010°52'0 0.0
2015-Aug-21 14:13N 53°56' E 010°52'0 0.0
2015-Aug-21 13:19N 53°56' E 010°52'0 0.0
2015-Aug-21 12:31N 53°56' E 010°52'0 0.0
2015-Aug-21 09:31N 53°56' E 010°52'0 0.0
2015-Aug-21 08:31N 53°56' E 010°52'0 0.0
2015-Aug-21 07:31N 53°56' E 010°52'0 0.0
2015-Aug-21 06:31N 53°56' E 010°52'0 0.0
2015-Aug-21 05:25N 53°56' E 010°52'0 0.5
2015-Aug-21 04:30N 53°57' E 010°52'9 9.6
2015-Aug-21 03:32N 54°03' E 011°03'1211.8
2015-Aug-21 02:33N 54°11' E 011°17'1211.9
2015-Aug-21 01:34N 54°22' E 011°26'1211.9
2015-Aug-21 00:34N 54°33' E 011°18'1212.4
2015-Aug-20 23:33N 54°39' E 010°59'1010.3
2015-Aug-20 22:33N 54°48' E 010°51'1211.8
2015-Aug-20 21:31N 54°59' E 011°01'1212.5
2015-Aug-20 20:34N 55°11' E 011°04'31 2.3
2015-Aug-20 07:05N 55°37' E 010°33'0 0.1
2015-Aug-20 06:31N 55°37' E 010°33'0 0.0
2015-Aug-20 05:31N 55°37' E 010°33'0 0.0
2015-Aug-20 04:31N 55°37' E 010°33'0 0.0
2015-Aug-20 03:31N 55°37' E 010°33'0 0.0
2015-Aug-19 23:19N 55°37' E 010°33'10 0.6
2015-Aug-19 07:05N 55°45' E 010°41'  
Track history (hours):
 
Tides and Currents Weather Stations Pressure Air Temp Water Temp Dewpoint Dewpoint Depression Visibility Wind Speed Wind Dir Waves Ship Positions

Tor Futura

Last reported at 2015-Aug-27 07:03 UTC. Time now 2015-Aug-28 00:13 UTC.
Position N 36°17' W 007°57'.

Length 183.1 m; beam 25.2 m; draft 7.8 m.

Type: Cargo ship. MMSI: 219927000.

Date/timePositionNaut miles runAvg speedWind from/ knotsBaromVisibWave heightAir tempDewpointWater temp
2015-Aug-27 07:03N 36°17' W 007°57'715.0
2015-Aug-27 06:33N 36°19' W 008°06'1515.0
2015-Aug-27 05:33N 36°23' W 008°24'1514.8
2015-Aug-27 04:32N 36°27' W 008°42'1514.9
2015-Aug-27 03:34N 36°31' W 008°59'1814.1
2015-Aug-27 02:16N 36°37' W 009°20'1114.9
2015-Aug-27 01:33N 36°45' W 009°29'1514.6
2015-Aug-27 00:33N 36°59' W 009°36'1515.2
2015-Aug-26 23:33N 37°13' W 009°41'1514.9
2015-Aug-26 22:33N 37°28' W 009°45'1515.2
2015-Aug-26 21:33N 37°43' W 009°49'1514.9
2015-Aug-26 20:33N 37°57' W 009°54'1414.5
2015-Aug-26 19:33N 38°11' W 009°58'1514.5
2015-Aug-26 18:33N 38°25' W 010°02'1514.6
2015-Aug-26 17:33N 38°40' W 010°06'1515.4
2015-Aug-26 16:33N 38°55' W 010°07'1515.1
2015-Aug-26 15:33N 39°10' W 010°07'1514.9
2015-Aug-26 14:33N 39°25' W 010°07'  
2015-Aug-24 03:03N 50°33' E 000°03'713.8
2015-Aug-24 02:33N 50°35' E 000°13'1413.9
2015-Aug-24 01:33N 50°38' E 000°34'1414.0
2015-Aug-24 00:33N 50°45' E 000°54'1515.0
2015-Aug-23 23:33N 50°55' E 001°12'1515.5
2015-Aug-23 22:33N 51°05' E 001°31'1514.7
2015-Aug-23 21:34N 51°15' E 001°47'1414.4
2015-Aug-23 20:34N 51°28' E 001°57'1414.2
2015-Aug-23 19:33N 51°39' E 002°13'1513.9
2015-Aug-23 18:30N 51°50' E 002°28'3313.8
2015-Aug-23 16:05N 52°15' E 003°03'7215.1
2015-Aug-23 11:18N 53°10' E 004°21'1414.6
2015-Aug-23 10:20N 53°23' E 004°31'1214.6
2015-Aug-23 09:32N 53°34' E 004°38'1414.0
2015-Aug-23 08:33N 53°46' E 004°47'1414.3
2015-Aug-23 07:33N 53°60' E 004°56'1514.6
2015-Aug-23 06:33N 54°13' E 005°06'1514.7
2015-Aug-23 05:34N 54°26' E 005°19'1514.5
2015-Aug-23 04:33N 54°38' E 005°31'1414.3
2015-Aug-23 03:33N 54°50' E 005°44'1514.3
2015-Aug-23 02:30N 55°03' E 005°57'1414.5
2015-Aug-23 01:33N 55°15' E 006°10'1414.2
2015-Aug-23 00:33N 55°27' E 006°24'1414.4
2015-Aug-22 23:33N 55°39' E 006°38'1414.4
2015-Aug-22 22:33N 55°51' E 006°51'14114.1
2015-Aug-22 12:33N 57°35' E 009°44'1515.1
2015-Aug-22 11:33N 57°41' E 010°10'1514.9
2015-Aug-22 10:33N 57°47' E 010°36'1313.1
2015-Aug-22 09:34N 57°42' E 010°58'1717.1
2015-Aug-22 08:34N 57°30' E 011°21'1414.3
2015-Aug-22 07:34N 57°17' E 011°32'1414.4
2015-Aug-22 06:34N 57°04' E 011°42'1515.1
2015-Aug-22 05:34N 56°49' E 011°51'1414.0
2015-Aug-22 04:34N 56°36' E 011°44'1514.9
2015-Aug-22 03:34N 56°23' E 011°31'1414.4
2015-Aug-22 02:33N 56°11' E 011°17'1414.3
2015-Aug-22 01:33N 55°59' E 011°03'1615.5
2015-Aug-22 00:33N 55°46' E 010°49'1616.3
2015-Aug-21 23:33N 55°30' E 010°54'1616.5
2015-Aug-21 22:34N 55°14' E 011°06'1615.6
2015-Aug-21 21:34N 54°59' E 011°01'1413.7
2015-Aug-21 20:33N 54°46' E 010°53'1313.1
2015-Aug-21 19:33N 54°37' E 011°08'1413.6
2015-Aug-21 18:33N 54°27' E 011°25'1413.6
2015-Aug-21 17:33N 54°13' E 011°21'1414.1
2015-Aug-21 16:33N 54°03' E 011°04'10 9.9
2015-Aug-21 15:31N 53°56' E 010°52'0 0.0
2015-Aug-21 14:13N 53°56' E 010°52'0 0.0
2015-Aug-21 13:19N 53°56' E 010°52'0 0.0
2015-Aug-21 12:31N 53°56' E 010°52'0 0.0
2015-Aug-21 09:31N 53°56' E 010°52'0 0.0
2015-Aug-21 08:31N 53°56' E 010°52'0 0.0
2015-Aug-21 07:31N 53°56' E 010°52'0 0.0
2015-Aug-21 06:31N 53°56' E 010°52'0 0.0
2015-Aug-21 05:25N 53°56' E 010°52'0 0.5
2015-Aug-21 04:30N 53°57' E 010°52'9 9.6
2015-Aug-21 03:32N 54°03' E 011°03'1211.8
2015-Aug-21 02:33N 54°11' E 011°17'1211.9
2015-Aug-21 01:34N 54°22' E 011°26'1211.9
2015-Aug-21 00:34N 54°33' E 011°18'1212.4
2015-Aug-20 23:33N 54°39' E 010°59'1010.3
2015-Aug-20 22:33N 54°48' E 010°51'1211.8
2015-Aug-20 21:31N 54°59' E 011°01'1212.5
2015-Aug-20 20:34N 55°11' E 011°04'31 2.3
2015-Aug-20 07:05N 55°37' E 010°33'0 0.1
2015-Aug-20 06:31N 55°37' E 010°33'0 0.0
2015-Aug-20 05:31N 55°37' E 010°33'0 0.0
2015-Aug-20 04:31N 55°37' E 010°33'0 0.0
2015-Aug-20 03:31N 55°37' E 010°33'0 0.0
2015-Aug-19 23:19N 55°37' E 010°33'10 0.6
2015-Aug-19 07:05N 55°45' E 010°41'  

Dump ship's entire track history